Time;durP1;ratioP1;P1;durP2;ratioP2;P2;SDS_P1;SDS_P2;PMS_P1;PMS_P2;Temp;Humidity;BMP_temperature;BMP_pressure;BME280_temperature;BME280_humidity;BME280_pressure;Samples;Min_cycle;Max_cycle;Signal;HPM_P1;HPM_P2
2021/08/18 00:02:30;;;;;;;12.65;8.20;;;;;;;15.55;92.69;99432.47;6362639;28;20489;-77
2021/08/18 00:05:35;;;;;;;15.57;8.77;;;;;;;15.53;93.14;99435.53;6363250;28;20182;-77
2021/08/18 00:08:40;;;;;;;14.93;8.07;;;;;;;15.53;93.34;99442.94;6363546;28;20224;-77
2021/08/18 00:11:46;;;;;;;18.13;10.07;;;;;;;15.45;93.87;99435.25;6363753;28;20190;-77
2021/08/18 00:14:51;;;;;;;16.13;9.85;;;;;;;15.55;93.58;99426.97;6362721;28;20233;-77
2021/08/18 00:18:00;;;;;;;19.23;10.52;;;;;;;15.56;93.22;99434.94;6363566;28;20203;-77
2021/08/18 00:21:04;;;;;;;18.00;10.30;;;;;;;15.52;93.97;99422.03;6362130;28;20539;-77
2021/08/18 00:24:08;;;;;;;22.63;11.38;;;;;;;15.53;93.73;99423.69;6363084;28;20182;-77
2021/08/18 00:27:14;;;;;;;27.52;11.00;;;;;;;15.59;93.56;99439.03;6362005;28;20373;-77
2021/08/18 00:30:18;;;;;;;20.55;11.07;;;;;;;15.64;92.80;99437.09;6361832;28;20485;-77
2021/08/18 00:33:23;;;;;;;22.02;10.35;;;;;;;15.71;92.22;99430.47;6362744;28;20232;-77
2021/08/18 00:36:27;;;;;;;23.15;11.07;;;;;;;15.70;92.41;99432.38;6361961;28;20417;-77
2021/08/18 00:39:31;;;;;;;19.10;10.90;;;;;;;15.57;93.22;99435.75;6362136;28;20524;-77
2021/08/18 00:42:39;;;;;;;20.10;10.80;;;;;;;15.60;93.45;99429.69;6363106;28;20182;-77
2021/08/18 00:45:44;;;;;;;24.52;12.32;;;;;;;15.60;93.44;99416.78;6363213;28;20209;-77
2021/08/18 00:48:48;;;;;;;27.30;11.95;;;;;;;15.60;93.64;99425.03;6363132;28;20182;-77
2021/08/18 00:51:53;;;;;;;23.85;11.68;;;;;;;15.63;93.16;99412.66;6363266;28;20186;-77
2021/08/18 00:54:59;;;;;;;24.77;10.57;;;;;;;15.68;92.59;99398.88;6362768;28;20182;-77
2021/08/18 00:58:05;;;;;;;17.05;11.07;;;;;;;15.70;91.74;99393.91;6362251;28;20190;-77
2021/08/18 01:01:10;;;;;;;24.92;10.90;;;;;;;15.71;91.44;99392.81;6364932;28;20210;-77
2021/08/18 01:04:15;;;;;;;19.30;11.40;;;;;;;15.69;91.48;99395.00;6367112;28;20240;-77
2021/08/18 01:07:20;;;;;;;18.73;10.80;;;;;;;15.61;91.70;99390.13;6366707;28;20462;-77
2021/08/18 01:10:26;;;;;;;15.00;10.45;;;;;;;15.59;91.95;99384.06;6367937;28;20248;-77
2021/08/18 01:13:31;;;;;;;19.85;10.93;;;;;;;15.53;92.11;99365.97;6367289;28;20183;-77
2021/08/18 01:16:37;;;;;;;14.48;9.85;;;;;;;15.53;91.98;99368.72;6366560;28;20439;-77
2021/08/18 01:19:41;;;;;;;17.77;10.35;;;;;;;15.49;92.09;99373.13;6367634;28;20251;-77
2021/08/18 01:22:45;;;;;;;13.60;9.93;;;;;;;15.48;92.17;99355.03;6367130;28;20181;-77
2021/08/18 01:25:50;;;;;;;15.80;9.88;;;;;;;15.43;93.22;99366.00;6367989;28;20261;-77
2021/08/18 01:28:56;;;;;;;17.65;10.77;;;;;;;15.44;93.22;99365.72;6370610;28;20190;-77
2021/08/18 01:32:00;;;;;;;19.23;10.82;;;;;;;15.39;93.79;99351.19;6370421;28;20186;-77
2021/08/18 01:35:05;;;;;;;28.55;10.55;;;;;;;15.51;92.90;99354.47;6369009;28;20182;-79
2021/08/18 01:38:12;;;;;;;16.50;9.82;;;;;;;15.36;92.93;99360.00;6365114;28;20492;-77
2021/08/18 01:41:16;;;;;;;15.93;9.20;;;;;;;15.25;93.33;99355.66;6365215;28;20237;-76
2021/08/18 01:44:22;;;;;;;15.27;9.00;;;;;;;15.26;93.17;99362.78;6364929;28;20182;-76
2021/08/18 01:47:26;;;;;;;11.57;8.40;;;;;;;15.24;92.32;99359.50;6365880;28;20267;-76
2021/08/18 01:50:30;;;;;;;12.23;8.32;;;;;;;15.07;92.16;99346.94;6365981;28;20190;-76
2021/08/18 01:53:40;;;;;;;13.43;8.38;;;;;;;15.07;92.28;99338.72;6364580;28;20470;-76
2021/08/18 01:56:44;;;;;;;10.48;7.70;;;;;;;15.21;91.22;99329.84;6364442;28;20478;-76
2021/08/18 01:59:50;;;;;;;11.48;7.43;;;;;;;15.23;90.64;99341.41;6365750;28;20182;-76
2021/08/18 02:02:54;;;;;;;11.85;6.72;;;;;;;15.20;91.01;99320.00;6365610;28;20236;-76
2021/08/18 02:06:00;;;;;;;8.13;6.60;;;;;;;15.14;90.74;99332.94;6365080;28;20245;-76
2021/08/18 02:09:04;;;;;;;16.67;6.88;;;;;;;14.99;91.39;99339.31;6365561;28;20182;-76
2021/08/18 02:12:11;;;;;;;13.25;7.07;;;;;;;14.99;91.23;99331.09;6363107;28;20186;-77
2021/08/18 02:15:19;;;;;;;13.23;6.97;;;;;;;15.01;90.95;99325.31;6365155;28;20292;-77
2021/08/18 02:18:25;;;;;;;16.50;7.25;;;;;;;15.04;90.55;99327.50;6365319;28;20214;-77
2021/08/18 02:21:30;;;;;;;15.15;7.43;;;;;;;14.99;90.93;99325.59;6363748;28;20210;-77
2021/08/18 02:24:34;;;;;;;11.48;7.57;;;;;;;14.96;91.27;99326.16;6365366;28;20182;-77
2021/08/18 02:27:39;;;;;;;13.00;8.10;;;;;;;15.04;90.98;99322.81;6363702;28;20478;-77
2021/08/18 02:30:44;;;;;;;10.18;7.03;;;;;;;15.04;90.45;99317.31;6363688;28;20257;-77
2021/08/18 02:33:50;;;;;;;11.18;7.53;;;;;;;14.99;90.35;99314.63;6364872;28;20182;-77
2021/08/18 02:36:57;;;;;;;8.63;7.25;;;;;;;15.02;90.61;99319.50;6364532;28;20186;-77
2021/08/18 02:40:06;;;;;;;12.35;8.95;;;;;;;14.97;91.06;99305.00;6363475;28;20189;-77
2021/08/18 02:43:12;;;;;;;11.57;8.68;;;;;;;14.98;90.88;99312.97;6364488;28;20240;-77
2021/08/18 02:46:17;;;;;;;14.38;8.65;;;;;;;15.10;89.85;99301.63;6364678;28;20213;-77
2021/08/18 02:49:22;;;;;;;19.52;9.50;;;;;;;15.07;89.72;99311.25;6363213;28;20493;-77
2021/08/18 02:52:26;;;;;;;10.77;8.30;;;;;;;15.02;89.90;99303.03;6363283;28;20186;-77
2021/08/18 02:55:30;;;;;;;11.77;8.35;;;;;;;14.95;89.81;99313.50;6363378;28;20524;-77
2021/08/18 02:58:34;;;;;;;12.10;9.20;;;;;;;14.92;90.46;99314.06;6363420;28;20205;-77
2021/08/18 03:01:40;;;;;;;13.80;8.77;;;;;;;15.00;89.95;99288.78;6362876;28;20206;-77
2021/08/18 03:04:45;;;;;;;16.98;8.90;;;;;;;14.86;90.60;99287.75;6364067;28;20246;-77
2021/08/18 03:07:49;;;;;;;11.30;9.43;;;;;;;14.93;90.05;99290.19;6379911;27;20205;-77
2021/08/18 03:10:55;;;;;;;11.40;9.63;;;;;;;14.87;90.70;99288.56;6363715;28;20276;-77
2021/08/18 03:13:59;;;;;;;11.98;9.18;;;;;;;14.92;90.92;99286.63;6362681;28;20373;-77
2021/08/18 03:17:05;;;;;;;15.18;9.93;;;;;;;14.94;90.55;99289.91;6362169;28;20238;-77
2021/08/18 03:20:12;;;;;;;11.68;8.93;;;;;;;14.86;90.74;99282.28;6362429;28;20408;-77
2021/08/18 03:23:17;;;;;;;11.18;8.05;;;;;;;14.93;90.74;99288.28;6362214;28;20522;-77
2021/08/18 03:26:21;;;;;;;14.15;9.48;;;;;;;15.06;90.09;99286.81;6363450;28;20186;-77
2021/08/18 03:29:25;;;;;;;15.75;8.80;;;;;;;15.02;89.98;99270.09;6362945;28;20460;-77
2021/08/18 03:32:32;;;;;;;8.50;7.68;;;;;;;14.99;90.03;99276.16;6363519;28;20186;-77
2021/08/18 03:35:36;;;;;;;13.05;8.50;;;;;;;15.04;90.09;99278.88;6362293;28;20410;-77
2021/08/18 03:38:40;;;;;;;10.98;7.95;;;;;;;15.03;90.41;99277.22;6363603;28;20239;-77
2021/08/18 03:41:44;;;;;;;9.18;7.88;;;;;;;14.87;90.95;99278.41;6362284;28;20227;-77
2021/08/18 03:44:49;;;;;;;11.70;7.82;;;;;;;14.83;90.98;99277.34;6363491;28;20183;-77
2021/08/18 03:47:54;;;;;;;8.95;7.13;;;;;;;14.76;91.29;99276.84;6362457;28;20190;-77
2021/08/18 03:50:58;;;;;;;9.80;7.13;;;;;;;14.93;90.50;99282.78;6361986;28;20183;-77
2021/08/18 03:54:02;;;;;;;8.18;6.57;;;;;;;14.92;90.05;99270.13;6361972;28;20261;-77
2021/08/18 03:57:07;;;;;;;5.32;4.82;;;;;;;15.00;89.15;99274.22;6361927;28;20221;-77
2021/08/18 04:00:16;;;;;;;9.65;6.28;;;;;;;14.99;90.43;99276.16;6362785;28;20189;-77
2021/08/18 04:03:23;;;;;;;6.40;5.80;;;;;;;15.05;89.87;99269.50;6361616;28;20378;-77
2021/08/18 04:06:28;;;;;;;6.15;5.65;;;;;;;15.02;89.58;99258.31;6363136;28;20189;-77
2021/08/18 04:09:33;;;;;;;6.85;5.82;;;;;;;15.07;89.54;99265.69;6363345;28;20296;-77
2021/08/18 04:12:49;;;;;;;5.60;5.00;;;;;;;15.09;89.37;99261.53;6363319;28;20193;-77
2021/08/18 04:15:55;;;;;;;4.88;4.47;;;;;;;15.16;88.71;99261.22;6362370;28;20257;-77
2021/08/18 04:19:00;;;;;;;4.93;4.43;;;;;;;15.19;88.77;99268.88;6362654;28;20249;-77
2021/08/18 04:22:08;;;;;;;6.03;4.30;;;;;;;15.15;88.25;99257.63;6363512;28;20213;-77
2021/08/18 04:25:13;;;;;;;4.65;4.35;;;;;;;15.25;87.04;99252.09;6363454;28;20189;-77
2021/08/18 04:28:33;;;;;;;4.18;3.97;;;;;;;15.09;88.51;99244.22;6362935;28;20204;-77
2021/08/18 04:31:37;;;;;;;4.78;4.38;;;;;;;15.07;89.21;99249.19;6363417;28;20182;-77
2021/08/18 04:34:42;;;;;;;7.80;4.30;;;;;;;15.02;89.06;99256.34;6362740;28;20500;-78
2021/08/18 04:37:46;;;;;;;5.22;4.20;;;;;;;15.02;89.26;99248.09;6366894;28;20204;-77
2021/08/18 04:40:50;;;;;;;4.20;3.90;;;;;;;14.97;89.42;99239.09;6367801;28;20245;-78
2021/08/18 04:43:55;;;;;;;4.88;3.65;;;;;;;15.00;89.29;99239.34;6368128;28;20206;-77
2021/08/18 04:46:59;;;;;;;3.97;3.10;;;;;;;14.93;89.58;99233.34;6348886;28;20304;-77
2021/08/18 04:50:06;;;;;;;4.85;3.15;;;;;;;14.90;90.56;99222.94;6366618;28;20412;-78
2021/08/18 04:53:13;;;;;;;2.83;2.72;;;;;;;15.09;89.36;99225.00;6367962;28;20187;-78
2021/08/18 04:56:17;;;;;;;3.50;3.15;;;;;;;15.21;89.22;99219.97;6366359;28;20261;-78
2021/08/18 04:59:21;;;;;;;3.03;2.83;;;;;;;15.30;87.81;99210.03;6367240;28;20247;-78
2021/08/18 05:02:25;;;;;;;2.75;2.65;;;;;;;15.34;88.29;99211.09;6367626;28;20210;-78
2021/08/18 05:05:31;;;;;;;3.08;2.88;;;;;;;15.36;88.80;99192.38;6367925;28;20186;-78
2021/08/18 05:08:35;;;;;;;2.60;2.50;;;;;;;15.47;88.38;99194.78;6366972;28;20182;-78
2021/08/18 05:11:40;;;;;;;2.50;2.38;;;;;;;15.48;88.33;99190.13;6366993;28;20254;-78
2021/08/18 05:14:44;;;;;;;2.10;2.10;;;;;;;15.43;88.35;99193.69;6366993;28;20294;-78
2021/08/18 05:17:48;;;;;;;2.03;2.03;;;;;;;15.53;88.24;99192.81;6367885;28;20182;-79
2021/08/18 05:20:53;;;;;;;3.42;2.20;;;;;;;15.71;86.82;99189.34;6367810;28;20182;-78
2021/08/18 05:23:58;;;;;;;5.25;2.25;;;;;;;15.62;87.10;99193.81;6367116;28;20412;-78
2021/08/18 05:27:02;;;;;;;1.80;1.80;;;;;;;15.70;86.53;99184.97;6367548;28;20182;-78
2021/08/18 05:30:09;;;;;;;2.13;2.13;;;;;;;15.67;86.92;99180.03;6370025;28;20182;-78
2021/08/18 05:33:15;;;;;;;2.45;2.20;;;;;;;15.70;86.63;99176.72;6370541;28;20232;-79
2021/08/18 05:36:22;;;;;;;2.10;2.10;;;;;;;15.66;87.33;99175.66;6370281;28;20418;-79
2021/08/18 05:39:26;;;;;;;3.25;1.88;;;;;;;15.59;87.11;99180.66;6369717;28;20470;-78
2021/08/18 05:42:30;;;;;;;1.70;1.70;;;;;;;15.61;87.35;99172.97;6371720;28;20269;-79
2021/08/18 05:45:35;;;;;;;1.88;1.88;;;;;;;15.44;89.10;99172.53;6368403;28;20186;-78
2021/08/18 05:48:41;;;;;;;2.05;2.05;;;;;;;15.44;89.86;99167.03;6367765;28;20221;-78
2021/08/18 05:51:47;;;;;;;2.08;1.98;;;;;;;15.44;90.98;99161.53;6366326;28;20356;-79
2021/08/18 05:54:53;;;;;;;1.92;1.83;;;;;;;15.27;91.59;99161.16;6367181;28;20232;-78
2021/08/18 05:57:57;;;;;;;1.90;1.80;;;;;;;15.40;91.31;99160.47;6368905;28;20186;-80
2021/08/18 06:01:02;;;;;;;3.05;1.85;;;;;;;15.37;91.93;99150.06;6368581;28;20189;-77
2021/08/18 06:04:06;;;;;;;2.05;2.05;;;;;;;15.47;91.71;99150.81;6369323;28;20210;-78
2021/08/18 06:07:12;;;;;;;1.80;1.80;;;;;;;15.47;91.54;99144.50;6370121;28;20194;-78
2021/08/18 06:10:16;;;;;;;2.00;1.90;;;;;;;15.65;90.78;99135.53;6368613;28;20205;-78
2021/08/18 06:13:23;;;;;;;3.00;1.92;;;;;;;15.60;91.53;99132.84;6370120;28;20193;-78
2021/08/18 06:16:27;;;;;;;2.05;1.83;;;;;;;15.69;91.60;99131.06;6365191;28;20269;-78
2021/08/18 06:19:33;;;;;;;2.15;1.80;;;;;;;15.55;91.76;99124.63;6368088;28;20183;-78
2021/08/18 06:22:42;;;;;;;1.77;1.77;;;;;;;15.40;93.30;99124.75;6366491;28;20187;-78
2021/08/18 06:25:46;;;;;;;1.75;1.75;;;;;;;15.48;92.74;99124.16;6365480;28;20182;-77
2021/08/18 06:28:52;;;;;;;2.08;1.98;;;;;;;15.55;93.35;99119.97;6365718;28;20186;-77
2021/08/18 06:31:57;;;;;;;2.10;1.80;;;;;;;15.47;93.36;99111.53;6365774;28;20481;-77
2021/08/18 06:35:01;;;;;;;2.05;1.95;;;;;;;15.53;93.81;99110.38;6365254;28;20218;-78
2021/08/18 06:38:16;;;;;;;2.17;2.08;;;;;;;15.61;92.96;99118.00;6364791;28;20186;-78
2021/08/18 06:41:23;;;;;;;1.80;1.80;;;;;;;15.66;92.57;99102.22;6365338;28;20183;-78
2021/08/18 06:44:27;;;;;;;2.00;1.90;;;;;;;15.59;93.04;99109.19;6364069;28;20271;-78
2021/08/18 06:47:31;;;;;;;1.83;1.70;;;;;;;15.58;93.71;99102.06;6363601;28;20408;-78
2021/08/18 06:50:35;;;;;;;2.00;2.00;;;;;;;15.65;93.79;99094.28;6364700;28;20258;-78
2021/08/18 06:53:41;;;;;;;2.45;2.28;;;;;;;15.74;94.23;99100.78;6364228;28;20274;-78
2021/08/18 06:56:45;;;;;;;4.00;1.80;;;;;;;15.78;93.00;99090.84;6363470;28;20182;-78
2021/08/18 06:59:51;;;;;;;1.92;1.83;;;;;;;15.68;93.34;99090.97;6363786;28;20189;-78
2021/08/18 07:02:57;;;;;;;3.30;1.80;;;;;;;15.55;93.13;99097.97;6362942;28;20473;-78
2021/08/18 07:06:03;;;;;;;1.45;1.45;;;;;;;15.65;93.97;99094.28;6363619;28;20295;-78
2021/08/18 07:09:08;;;;;;;1.60;1.60;;;;;;;15.72;92.79;99096.69;6363168;28;20382;-78
2021/08/18 07:12:14;;;;;;;1.30;1.30;;;;;;;15.78;93.07;99092.78;6364327;28;20249;-78
2021/08/18 07:15:19;;;;;;;2.17;1.50;;;;;;;15.88;92.72;99079.72;6363800;28;20275;-77
2021/08/18 07:18:23;;;;;;;1.38;1.38;;;;;;;15.95;91.61;99090.34;6362856;28;20189;-77
2021/08/18 07:21:29;;;;;;;1.13;1.10;;;;;;;15.92;91.92;99086.25;6364219;28;20216;-77
2021/08/18 07:24:35;;;;;;;1.10;1.10;;;;;;;15.89;93.79;99099.81;6363740;28;20285;-77
2021/08/18 07:27:41;;;;;;;1.20;1.20;;;;;;;15.92;92.13;99091.75;6364029;28;20186;-77
2021/08/18 07:30:46;;;;;;;1.30;1.30;;;;;;;15.82;91.85;99085.59;6362297;28;20257;-77
2021/08/18 07:33:51;;;;;;;1.10;1.10;;;;;;;15.98;91.86;99087.84;6362473;28;20482;-77
2021/08/18 07:36:55;;;;;;;1.00;1.00;;;;;;;15.84;92.12;99086.94;6364244;28;20189;-77
2021/08/18 07:40:01;;;;;;;1.20;1.20;;;;;;;15.92;91.36;99077.22;6362885;28;20253;-77
2021/08/18 07:43:05;;;;;;;1.48;1.00;;;;;;;15.90;92.09;99077.50;6363220;28;20261;-77
2021/08/18 07:46:10;;;;;;;1.10;1.10;;;;;;;16.03;92.08;99064.94;6363408;28;20205;-77
2021/08/18 07:49:14;;;;;;;0.98;0.98;;;;;;;16.08;91.03;99073.13;6363460;28;20465;-77
2021/08/18 07:52:21;;;;;;;1.00;1.00;;;;;;;16.15;91.75;99068.91;6364767;28;20181;-77
2021/08/18 07:55:27;;;;;;;0.90;0.90;;;;;;;16.20;90.50;99066.09;6365855;28;20497;-77
2021/08/18 07:58:34;;;;;;;1.10;1.10;;;;;;;16.19;90.67;99058.97;6364281;28;20182;-78
2021/08/18 08:01:39;;;;;;;1.00;1.00;;;;;;;16.37;90.50;99056.50;6363663;28;20182;-78
2021/08/18 08:04:44;;;;;;;0.82;0.82;;;;;;;16.45;90.39;99047.59;6363792;28;20206;-78
2021/08/18 08:07:48;;;;;;;1.00;1.00;;;;;;;16.53;89.97;99047.78;6363646;28;20182;-78
2021/08/18 08:10:54;;;;;;;0.90;0.90;;;;;;;16.51;89.30;99043.66;6366468;28;20186;-78
2021/08/18 08:13:58;;;;;;;2.17;0.82;;;;;;;16.55;89.71;99036.44;6368968;28;20198;-78
2021/08/18 08:17:02;;;;;;;1.88;0.77;;;;;;;16.63;90.21;99041.28;6367678;28;20226;-78
2021/08/18 08:20:09;;;;;;;0.90;0.90;;;;;;;16.56;88.14;99035.34;6367679;28;20461;-78
2021/08/18 08:23:13;;;;;;;0.73;0.73;;;;;;;16.41;88.94;99038.31;6367420;28;20182;-78
2021/08/18 08:26:20;;;;;;;0.90;0.90;;;;;;;16.44;88.74;99021.16;6368231;28;20205;-78
2021/08/18 08:29:25;;;;;;;0.70;0.70;;;;;;;16.44;87.02;99032.19;6368611;28;20182;-78
2021/08/18 08:32:29;;;;;;;0.93;0.93;;;;;;;16.46;87.98;99029.97;6368556;28;20186;-78
2021/08/18 08:35:33;;;;;;;3.28;0.90;;;;;;;16.38;86.79;99022.38;6368358;28;20255;-78
2021/08/18 08:38:38;;;;;;;0.95;0.95;;;;;;;16.26;87.07;99025.56;6367186;28;20182;-78
2021/08/18 08:41:44;;;;;;;0.90;0.90;;;;;;;16.27;89.52;99028.03;6367220;28;20182;-78
2021/08/18 08:44:51;;;;;;;3.13;0.90;;;;;;;16.25;87.66;99013.72;6366922;28;20205;-78
2021/08/18 08:47:56;;;;;;;0.90;0.90;;;;;;;16.22;88.30;99014.34;6366840;28;20403;-78
2021/08/18 08:51:01;;;;;;;0.80;0.80;;;;;;;16.31;87.59;99016.44;6366646;28;20468;-78
2021/08/18 08:54:06;;;;;;;2.05;1.10;;;;;;;16.27;88.73;99016.22;6366793;28;20368;-78
2021/08/18 08:57:15;;;;;;;1.35;1.25;;;;;;;16.14;88.80;99017.78;6367492;28;20192;-77
2021/08/18 09:00:22;;;;;;;0.73;0.73;;;;;;;16.02;90.45;99017.38;6366256;28;20489;-78
2021/08/18 09:03:27;;;;;;;1.05;1.05;;;;;;;15.96;91.73;99013.06;6366184;28;20412;-78
2021/08/18 09:06:33;;;;;;;1.20;0.90;;;;;;;16.03;91.75;99004.44;6366711;28;20217;-78
2021/08/18 09:09:42;;;;;;;0.85;0.85;;;;;;;15.93;91.75;98999.09;6367756;28;20189;-78
2021/08/18 09:12:47;;;;;;;1.33;1.10;;;;;;;15.95;92.65;98992.19;6367388;28;20182;-77
2021/08/18 09:16:04;;;;;;;2.95;0.70;;;;;;;15.86;93.21;98993.97;6366093;28;20265;-77
2021/08/18 09:19:14;;;;;;;1.45;0.90;;;;;;;15.97;94.05;99003.69;6365702;28;20347;-77
2021/08/18 09:22:22;;;;;;;1.20;1.20;;;;;;;15.78;93.14;98991.88;6366272;28;20220;-77
2021/08/18 09:25:28;;;;;;;0.90;0.90;;;;;;;15.80;94.48;98980.56;6365763;28;20210;-78
2021/08/18 09:28:34;;;;;;;2.15;1.10;;;;;;;15.77;93.83;98986.69;6367023;28;20218;-77
2021/08/18 09:31:38;;;;;;;1.15;1.08;;;;;;;15.83;94.48;98978.06;6365914;28;20190;-78
2021/08/18 09:34:51;;;;;;;0.82;0.80;;;;;;;15.79;93.12;98977.03;6367534;28;20218;-77
2021/08/18 09:37:58;;;;;;;0.80;0.80;;;;;;;15.88;92.82;98986.22;6366927;28;20219;-78
2021/08/18 09:41:05;;;;;;;0.90;0.90;;;;;;;15.74;94.59;98990.00;6367557;28;20190;-77
2021/08/18 09:44:11;;;;;;;0.80;0.80;;;;;;;15.87;94.55;98989.28;6368191;28;20220;-77
2021/08/18 09:47:15;;;;;;;0.82;0.82;;;;;;;15.86;94.26;98982.97;6368377;28;20210;-78
2021/08/18 09:50:22;;;;;;;0.60;0.60;;;;;;;15.91;94.47;98977.38;6367277;28;20318;-77
2021/08/18 09:53:27;;;;;;;0.70;0.70;;;;;;;16.06;92.53;98971.66;6367701;28;20182;-79
2021/08/18 09:56:41;;;;;;;0.85;0.80;;;;;;;16.06;93.54;98965.34;6366968;28;20218;-78
2021/08/18 09:59:48;;;;;;;0.80;0.80;;;;;;;16.02;93.74;98964.31;6365963;28;20469;-78
2021/08/18 10:02:52;;;;;;;0.80;0.80;;;;;;;16.13;93.48;98963.84;6365655;28;20466;-78
2021/08/18 10:05:58;;;;;;;2.65;0.88;;;;;;;16.02;94.44;98965.09;6365241;28;20532;-78
2021/08/18 10:09:04;;;;;;;0.80;0.80;;;;;;;16.03;95.38;98964.00;6365507;28;20182;-78
2021/08/18 10:12:19;;;;;;;1.08;0.73;;;;;;;16.19;94.31;98962.66;6366324;28;20188;-78
2021/08/18 10:15:27;;;;;;;1.55;0.80;;;;;;;16.15;96.17;98964.38;6367273;28;20237;-78
2021/08/18 10:18:36;;;;;;;0.70;0.70;;;;;;;16.14;96.30;98968.25;6367560;28;20186;-78
2021/08/18 10:21:41;;;;;;;0.80;0.80;;;;;;;16.12;94.94;98970.50;6366802;28;20245;-78
2021/08/18 10:24:45;;;;;;;0.80;0.80;;;;;;;16.16;94.99;98966.00;6367021;28;20245;-78
2021/08/18 10:27:50;;;;;;;0.60;0.60;;;;;;;16.08;95.56;98963.94;6367104;28;20210;-78
2021/08/18 10:30:55;;;;;;;0.65;0.65;;;;;;;16.07;95.51;98962.31;6366677;28;20183;-78
2021/08/18 10:34:03;;;;;;;1.55;0.70;;;;;;;16.15;94.78;98969.88;6364665;28;20182;-78
2021/08/18 10:37:17;;;;;;;0.70;0.70;;;;;;;15.98;94.94;98969.59;6365781;28;20190;-78
2021/08/18 10:40:34;;;;;;;1.00;0.90;;;;;;;16.06;95.53;98971.66;6365258;28;20190;-78
2021/08/18 10:44:00;;;;;;;1.30;0.80;;;;;;;16.12;96.11;98976.00;6364322;28;20395;-78
2021/08/18 10:47:23;;;;;;;1.20;0.73;;;;;;;16.09;96.75;98976.59;6364512;28;20210;-77
2021/08/18 10:50:42;;;;;;;3.25;1.05;;;;;;;16.05;97.92;98986.53;6365090;28;20183;-78
2021/08/18 10:53:48;;;;;;;1.00;1.00;;;;;;;16.14;96.03;98995.75;6380666;27;20198;-78
2021/08/18 10:56:57;;;;;;;0.88;0.88;;;;;;;15.92;96.65;98987.25;6364311;28;20473;-78
2021/08/18 11:00:09;;;;;;;1.00;1.00;;;;;;;15.95;97.51;98992.19;6365040;28;20245;-78
2021/08/18 11:03:26;;;;;;;2.50;1.35;;;;;;;15.93;96.59;98994.41;6363942;28;20228;-78
2021/08/18 11:06:51;;;;;;;2.42;2.33;;;;;;;15.97;98.12;98995.44;6364231;28;20210;-78
2021/08/18 11:10:02;;;;;;;1.00;1.00;;;;;;;15.81;96.93;99002.28;6364203;28;20227;-78
2021/08/18 11:13:07;;;;;;;2.47;1.10;;;;;;;15.92;97.06;99003.75;6363888;28;20249;-78
2021/08/18 11:16:14;;;;;;;4.18;1.20;;;;;;;15.91;96.63;99012.31;6363963;28;20244;-78
2021/08/18 11:19:20;;;;;;;1.48;1.35;;;;;;;15.87;96.69;99017.56;6363541;28;20253;-77
2021/08/18 11:22:25;;;;;;;1.67;1.00;;;;;;;15.75;97.12;99019.94;6363137;28;20477;-77
2021/08/18 11:25:30;;;;;;;1.13;0.93;;;;;;;15.87;97.59;99027.78;6363410;28;20500;-77
2021/08/18 11:28:38;;;;;;;1.92;1.20;;;;;;;15.86;96.99;99026.97;6363736;28;20530;-77
2021/08/18 11:31:45;;;;;;;0.82;0.82;;;;;;;15.89;97.35;99031.88;6364956;28;20181;-78
2021/08/18 11:34:51;;;;;;;0.90;0.90;;;;;;;15.81;97.23;99029.78;6365281;28;20206;-78
2021/08/18 11:38:04;;;;;;;2.40;1.00;;;;;;;15.85;97.89;99041.81;6364422;28;20185;-77
2021/08/18 11:41:08;;;;;;;0.88;0.88;;;;;;;15.71;97.36;99035.41;6362926;28;20182;-77
2021/08/18 11:44:27;;;;;;;0.90;0.90;;;;;;;15.88;96.44;99057.72;6364015;28;20183;-77
2021/08/18 11:47:35;;;;;;;0.80;0.80;;;;;;;15.69;96.86;99043.09;6363901;28;20269;-77
2021/08/18 11:50:52;;;;;;;1.75;1.10;;;;;;;15.86;97.55;99048.97;6362801;28;20381;-77
2021/08/18 11:53:56;;;;;;;1.10;1.10;;;;;;;16.01;97.57;99051.50;6363625;28;20189;-77
2021/08/18 11:57:03;;;;;;;0.85;0.85;;;;;;;15.93;97.38;99065.91;6362176;28;20229;-77
2021/08/18 12:00:09;;;;;;;1.05;0.93;;;;;;;16.02;98.53;99053.13;6363214;28;20225;-77
2021/08/18 12:03:17;;;;;;;2.67;0.80;;;;;;;16.01;98.41;99073.50;6363469;28;20235;-77
2021/08/18 12:06:32;;;;;;;1.02;1.02;;;;;;;16.09;97.86;99069.28;6363242;28;20235;-77
2021/08/18 12:09:36;;;;;;;1.40;1.40;;;;;;;16.12;96.55;99079.69;6362150;28;20213;-77
2021/08/18 12:12:41;;;;;;;0.80;0.80;;;;;;;16.04;95.94;99078.44;6362221;28;20201;-77
2021/08/18 12:15:50;;;;;;;1.15;1.15;;;;;;;16.14;96.46;99083.78;6362644;28;20233;-77
2021/08/18 12:19:23;;;;;;;2.65;1.00;;;;;;;16.07;98.38;99077.84;6362435;28;20218;-77
2021/08/18 12:22:30;;;;;;;1.00;1.00;;;;;;;16.17;96.94;99094.22;6362873;28;20182;-77
2021/08/18 12:25:36;;;;;;;1.20;1.20;;;;;;;16.10;95.55;99093.72;6362094;28;20182;-77
2021/08/18 12:28:52;;;;;;;0.80;0.80;;;;;;;15.97;96.55;99110.94;6362149;28;20357;-77
2021/08/18 12:32:01;;;;;;;1.00;1.00;;;;;;;16.05;97.22;99104.81;6363137;28;20183;-77
2021/08/18 12:35:09;;;;;;;0.90;0.90;;;;;;;16.02;97.81;99108.13;6361945;28;20466;-77
2021/08/18 12:38:20;;;;;;;1.10;1.10;;;;;;;15.91;95.04;99117.63;6363637;28;20193;-78
2021/08/18 12:41:26;;;;;;;0.82;0.82;;;;;;;16.00;95.96;99121.38;6362739;28;20186;-78
2021/08/18 12:44:33;;;;;;;1.20;1.20;;;;;;;16.02;96.23;99119.13;6362958;28;20247;-77
2021/08/18 12:47:39;;;;;;;1.00;1.00;;;;;;;15.88;96.00;99140.22;6361254;28;20518;-77
2021/08/18 12:50:43;;;;;;;2.05;1.25;;;;;;;15.97;96.48;99138.44;6362941;28;20228;-77
2021/08/18 12:53:51;;;;;;;1.20;1.20;;;;;;;15.96;97.51;99133.25;6361598;28;20205;-77
2021/08/18 12:56:55;;;;;;;1.10;1.10;;;;;;;15.95;96.12;99151.69;6365628;28;20197;-77
2021/08/18 12:59:59;;;;;;;1.00;1.00;;;;;;;16.00;96.43;99154.38;6367333;28;20228;-78
2021/08/18 13:03:05;;;;;;;4.22;1.00;;;;;;;16.06;95.65;99153.22;6367627;28;20214;-78
2021/08/18 13:06:14;;;;;;;2.92;1.40;;;;;;;16.05;95.42;99157.06;6366411;28;20182;-78
2021/08/18 13:09:19;;;;;;;1.20;1.20;;;;;;;16.02;95.29;99157.66;6367599;28;20210;-78
2021/08/18 13:12:24;;;;;;;1.25;1.15;;;;;;;16.05;95.56;99165.31;6348899;28;20276;-78
2021/08/18 13:15:28;;;;;;;1.40;1.30;;;;;;;15.86;95.83;99150.69;6348413;28;20225;-78
2021/08/18 13:18:33;;;;;;;1.20;1.20;;;;;;;15.89;95.77;99158.38;6367232;28;20234;-78
2021/08/18 13:21:39;;;;;;;1.95;1.35;;;;;;;15.87;96.18;99177.06;6365983;28;20182;-78
2021/08/18 13:24:45;;;;;;;1.40;1.40;;;;;;;16.01;95.23;99189.03;6366642;28;20219;-78
2021/08/18 13:27:49;;;;;;;3.75;1.50;;;;;;;15.97;94.11;99182.47;6365618;28;20439;-78
2021/08/18 13:30:56;;;;;;;1.30;1.30;;;;;;;15.88;93.99;99181.47;6365595;28;20224;-78
2021/08/18 13:34:00;;;;;;;1.33;1.33;;;;;;;15.97;93.87;99190.72;6366185;28;20217;-78
2021/08/18 13:37:05;;;;;;;1.55;1.50;;;;;;;15.91;94.48;99186.41;6365771;28;20470;-78
2021/08/18 13:40:12;;;;;;;1.20;1.20;;;;;;;15.89;94.48;99191.38;6366809;28;20252;-78
2021/08/18 13:43:16;;;;;;;5.45;2.67;;;;;;;15.99;94.49;99194.00;6367021;28;20182;-78
2021/08/18 13:46:24;;;;;;;1.45;1.45;;;;;;;16.04;95.61;99207.72;6366606;28;20182;-78
2021/08/18 13:49:31;;;;;;;1.25;1.25;;;;;;;16.10;93.98;99203.75;6366373;28;20269;-78
2021/08/18 13:52:35;;;;;;;3.65;1.58;;;;;;;16.11;93.60;99202.66;6366968;28;20186;-78
2021/08/18 13:55:43;;;;;;;1.70;1.50;;;;;;;16.12;93.98;99201.56;6366729;28;20190;-78
2021/08/18 13:58:47;;;;;;;2.15;1.42;;;;;;;16.11;92.46;99216.41;6367363;28;20186;-79
2021/08/18 14:01:51;;;;;;;1.63;1.50;;;;;;;16.18;92.34;99222.38;6368013;28;20249;-77
2021/08/18 14:04:56;;;;;;;1.58;1.58;;;;;;;16.15;94.30;99217.47;6367178;28;20218;-77
2021/08/18 14:08:01;;;;;;;1.70;1.70;;;;;;;16.29;94.08;99218.41;6365418;28;20210;-77
2021/08/18 14:11:07;;;;;;;1.70;1.60;;;;;;;16.21;93.33;99216.31;6364742;28;20469;-77
2021/08/18 14:14:11;;;;;;;2.92;1.50;;;;;;;16.46;93.35;99217.13;6367072;28;20207;-77
2021/08/18 14:17:16;;;;;;;3.00;1.60;;;;;;;16.67;93.23;99218.50;6369185;28;20182;-77
2021/08/18 14:20:20;;;;;;;2.20;2.00;;;;;;;16.75;92.02;99217.84;6368812;28;20298;-78
2021/08/18 14:23:24;;;;;;;1.75;1.65;;;;;;;16.83;92.26;99207.00;6366635;28;20189;-78
2021/08/18 14:26:30;;;;;;;1.73;1.73;;;;;;;16.86;90.71;99211.09;6364879;28;20547;-78
2021/08/18 14:29:34;;;;;;;1.88;1.77;;;;;;;16.93;90.60;99222.56;6366094;28;20210;-78
2021/08/18 14:32:41;;;;;;;4.18;1.50;;;;;;;16.76;87.23;99222.25;6364912;28;20370;-78
2021/08/18 14:35:46;;;;;;;1.98;1.88;;;;;;;16.96;88.34;99233.00;6364286;28;20183;-78